Time;durP1;ratioP1;P1;durP2;ratioP2;P2;SDS_P1;SDS_P2;PMS_P1;PMS_P2;Temp;Humidity;BMP_temperature;BMP_pressure;BME280_temperature;BME280_humidity;BME280_pressure;Samples;Min_cycle;Max_cycle;Signal;HPM_P1;HPM_P2
2021/12/30 00:01:11;;;;;;;66.28;23.27;;;;;;;;;;5033647;28;20029;-65
2021/12/30 00:03:37;;;;;;;73.57;23.55;;;;;;;;;;5033733;28;20037;-62
2021/12/30 00:06:03;;;;;;;71.15;22.40;;;;;;;;;;5033483;28;20017;-65
2021/12/30 00:08:28;;;;;;;73.40;21.08;;;;;;;;;;5033482;28;20112;-66
2021/12/30 00:10:54;;;;;;;75.57;23.70;;;;;;;;;;5033593;28;20025;-65
2021/12/30 00:13:21;;;;;;;64.47;23.30;;;;;;;;;;5033550;28;20033;-65
2021/12/30 00:15:46;;;;;;;68.57;23.25;;;;;;;;;;5033539;28;20025;-65
2021/12/30 00:18:12;;;;;;;79.78;22.00;;;;;;;;;;5033610;28;20827;-65
2021/12/30 00:20:39;;;;;;;65.55;22.60;;;;;;;;;;5033266;28;20083;-64
2021/12/30 00:23:07;;;;;;;69.00;23.85;;;;;;;;;;5033253;28;20061;-58
2021/12/30 00:25:39;;;;;;;65.97;23.05;;;;;;;;;;5033246;28;20021;-64
2021/12/30 00:28:11;;;;;;;64.78;20.67;;;;;;;;;;5032746;28;20030;-65
2021/12/30 00:30:37;;;;;;;67.90;22.33;;;;;;;;;;5033031;28;20041;-56
2021/12/30 00:33:02;;;;;;;75.05;23.73;;;;;;;;;;5033078;28;20033;-58
2021/12/30 00:35:28;;;;;;;61.75;19.15;;;;;;;;;;5033014;28;20048;-58
2021/12/30 00:37:54;;;;;;;60.88;21.15;;;;;;;;;;5032700;28;20108;-62
2021/12/30 00:40:19;;;;;;;58.05;21.30;;;;;;;;;;5032968;28;20108;-63
2021/12/30 00:42:45;;;;;;;66.25;22.23;;;;;;;;;;5033017;28;20026;-66
2021/12/30 00:45:11;;;;;;;67.20;22.15;;;;;;;;;;5032912;28;20522;-60
2021/12/30 00:47:36;;;;;;;62.17;20.90;;;;;;;;;;5032946;28;20429;-58
2021/12/30 00:50:02;;;;;;;71.03;23.08;;;;;;;;;;5032731;28;20519;-62
2021/12/30 00:52:27;;;;;;;69.15;21.77;;;;;;;;;;5032755;28;20032;-56
2021/12/30 00:54:53;;;;;;;67.18;23.38;;;;;;;;;;5032621;28;20384;-63
2021/12/30 00:57:19;;;;;;;65.35;19.98;;;;;;;;;;5032788;28;20033;-61
2021/12/30 00:59:44;;;;;;;78.10;24.88;;;;;;;;;;5032527;28;20373;-56
2021/12/30 01:02:10;;;;;;;60.10;21.90;;;;;;;;;;5032852;28;20040;-65
2021/12/30 01:04:35;;;;;;;65.78;20.67;;;;;;;;;;5032699;28;20017;-61
2021/12/30 01:07:01;;;;;;;61.95;20.52;;;;;;;;;;5032551;28;20033;-63
2021/12/30 01:09:26;;;;;;;62.53;20.13;;;;;;;;;;5032319;28;20108;-64
2021/12/30 01:11:54;;;;;;;65.60;20.00;;;;;;;;;;5032759;28;20136;-62
2021/12/30 01:14:20;;;;;;;60.75;20.67;;;;;;;;;;5032587;28;20476;-65
2021/12/30 01:16:50;;;;;;;77.45;23.10;;;;;;;;;;5032569;28;20488;-59
2021/12/30 01:22:00;;;;;;;58.40;19.00;;;;;;;;;;5032334;28;20344;-63
2021/12/30 01:24:26;;;;;;;55.88;18.63;;;;;;;;;;5032637;28;20232;-64
2021/12/30 01:26:51;;;;;;;67.40;17.60;;;;;;;;;;5032142;28;20039;-55
2021/12/30 01:29:17;;;;;;;54.05;18.10;;;;;;;;;;5032635;28;20030;-55
2021/12/30 01:31:42;;;;;;;63.45;18.58;;;;;;;;;;5032069;28;20060;-56
2021/12/30 01:34:07;;;;;;;66.43;16.10;;;;;;;;;;5032462;28;20400;-60
2021/12/30 01:36:33;;;;;;;59.65;15.18;;;;;;;;;;5032276;28;20025;-58
2021/12/30 01:38:58;;;;;;;59.15;15.38;;;;;;;;;;5032184;28;20373;-66
2021/12/30 01:41:24;;;;;;;79.65;18.48;;;;;;;;;;5035399;28;20460;-58
2021/12/30 01:43:50;;;;;;;99.43;18.45;;;;;;;;;;5036362;28;20522;-56
2021/12/30 01:46:16;;;;;;;73.47;18.23;;;;;;;;;;5036255;28;20045;-57
2021/12/30 01:48:42;;;;;;;74.10;17.42;;;;;;;;;;5036233;28;20025;-57
2021/12/30 01:51:08;;;;;;;57.85;16.92;;;;;;;;;;5036093;28;20036;-56
2021/12/30 01:53:34;;;;;;;71.65;18.42;;;;;;;;;;5036033;28;20056;-57
2021/12/30 01:56:01;;;;;;;66.97;16.40;;;;;;;;;;5036186;28;20025;-56
2021/12/30 01:58:27;;;;;;;73.50;17.50;;;;;;;;;;5036089;28;20018;-55
2021/12/30 02:00:53;;;;;;;68.20;16.63;;;;;;;;;;5036101;28;20033;-59
2021/12/30 02:03:19;;;;;;;69.75;15.80;;;;;;;;;;5035845;28;20022;-56
2021/12/30 02:05:45;;;;;;;42.92;13.52;;;;;;;;;;5035550;28;20037;-59
2021/12/30 02:08:14;;;;;;;88.82;17.33;;;;;;;;;;5035950;28;20021;-57
2021/12/30 02:10:43;;;;;;;81.00;18.13;;;;;;;;;;5035808;28;20053;-57
2021/12/30 02:13:09;;;;;;;76.28;16.42;;;;;;;;;;5035800;28;20381;-55
2021/12/30 02:15:36;;;;;;;71.60;17.13;;;;;;;;;;5035737;28;20044;-66
2021/12/30 02:18:02;;;;;;;59.92;15.25;;;;;;;;;;5035474;28;20092;-65
2021/12/30 02:20:46;;;;;;;72.18;17.15;;;;;;;;;;5035392;28;20084;-66
2021/12/30 02:23:37;;;;;;;65.78;14.90;;;;;;;;;;5035671;28;20381;-67
2021/12/30 02:26:07;;;;;;;55.85;15.95;;;;;;;;;;5034692;28;20365;-66
2021/12/30 02:28:35;;;;;;;50.60;14.70;;;;;;;;;;5035583;28;20116;-65
2021/12/30 02:31:06;;;;;;;47.25;15.10;;;;;;;;;;5035476;28;20044;-60
2021/12/30 02:33:32;;;;;;;48.65;14.48;;;;;;;;;;5035292;28;20510;-56
2021/12/30 02:35:58;;;;;;;41.97;14.80;;;;;;;;;;5035181;28;20121;-56
2021/12/30 02:38:24;;;;;;;40.45;14.23;;;;;;;;;;5035673;28;20109;-56
2021/12/30 02:40:53;;;;;;;41.13;14.32;;;;;;;;;;5035244;28;20082;-60
2021/12/30 02:43:25;;;;;;;47.53;14.02;;;;;;;;;;5035470;28;20038;-66
2021/12/30 02:45:51;;;;;;;41.50;14.98;;;;;;;;;;5035192;28;20017;-66
2021/12/30 02:48:22;;;;;;;43.58;16.00;;;;;;;;;;5034909;28;20112;-66
2021/12/30 02:50:50;;;;;;;48.70;16.30;;;;;;;;;;5034754;28;20028;-64
2021/12/30 02:53:15;;;;;;;62.13;17.75;;;;;;;;;;5035034;28;20036;-56
2021/12/30 02:55:43;;;;;;;47.50;16.15;;;;;;;;;;5035113;28;20021;-64
2021/12/30 02:58:09;;;;;;;46.80;15.38;;;;;;;;;;5034994;28;20104;-61
2021/12/30 03:00:36;;;;;;;46.55;15.45;;;;;;;;;;5034832;28;20387;-65
2021/12/30 03:03:02;;;;;;;42.60;15.90;;;;;;;;;;5034532;28;20030;-65
2021/12/30 03:05:27;;;;;;;51.28;18.42;;;;;;;;;;5034783;28;20041;-66
2021/12/30 03:07:54;;;;;;;53.40;18.73;;;;;;;;;;5034779;28;20017;-54
2021/12/30 03:10:23;;;;;;;47.53;16.58;;;;;;;;;;5034828;28;20021;-62
2021/12/30 03:12:56;;;;;;;47.95;17.50;;;;;;;;;;5034750;28;20065;-61
2021/12/30 03:15:23;;;;;;;53.60;16.58;;;;;;;;;;5034666;28;20620;-56
2021/12/30 03:17:49;;;;;;;41.58;15.00;;;;;;;;;;5016792;28;20021;-63
2021/12/30 03:20:14;;;;;;;48.97;15.15;;;;;;;;;;5034613;28;20136;-66
2021/12/30 03:22:42;;;;;;;52.85;16.50;;;;;;;;;;5034233;28;20532;-63
2021/12/30 03:25:12;;;;;;;55.80;15.90;;;;;;;;;;5034485;28;20029;-65
2021/12/30 03:27:38;;;;;;;46.05;14.10;;;;;;;;;;5034277;28;20480;-66
2021/12/30 03:30:12;;;;;;;40.17;13.55;;;;;;;;;;5034357;28;20088;-66
2021/12/30 03:32:38;;;;;;;47.10;14.98;;;;;;;;;;5033697;28;20112;-64
2021/12/30 03:35:05;;;;;;;58.15;15.20;;;;;;;;;;5034335;28;20064;-64
2021/12/30 03:37:30;;;;;;;58.60;16.20;;;;;;;;;;5034179;28;20021;-65
2021/12/30 03:39:56;;;;;;;46.40;14.50;;;;;;;;;;5034063;28;20036;-66
2021/12/30 03:42:21;;;;;;;52.50;15.73;;;;;;;;;;5034440;28;20030;-64
2021/12/30 03:44:48;;;;;;;49.47;15.25;;;;;;;;;;5034155;28;20499;-58
2021/12/30 03:47:17;;;;;;;47.05;15.25;;;;;;;;;;5033688;28;20022;-65
2021/12/30 03:49:45;;;;;;;51.83;14.93;;;;;;;;;;5034169;28;20040;-64
2021/12/30 03:52:20;;;;;;;47.88;15.18;;;;;;;;;;5033816;28;20063;-65
2021/12/30 03:54:47;;;;;;;47.20;15.18;;;;;;;;;;5033914;28;20513;-66
2021/12/30 03:57:13;;;;;;;73.18;15.70;;;;;;;;;;5033731;28;20030;-64
2021/12/30 03:59:38;;;;;;;56.97;15.13;;;;;;;;;;5033747;28;20029;-66
2021/12/30 04:02:04;;;;;;;53.65;13.55;;;;;;;;;;5033423;28;20036;-65
2021/12/30 04:04:30;;;;;;;61.08;15.95;;;;;;;;;;5033138;28;20104;-66
2021/12/30 04:06:56;;;;;;;69.70;15.13;;;;;;;;;;5033690;28;20013;-66
2021/12/30 04:09:21;;;;;;;58.83;14.25;;;;;;;;;;5033509;28;20021;-66
2021/12/30 04:11:47;;;;;;;94.25;15.30;;;;;;;;;;5033356;28;20022;-64
2021/12/30 04:14:12;;;;;;;74.10;13.40;;;;;;;;;;5033657;28;20033;-60
2021/12/30 04:16:37;;;;;;;60.22;10.90;;;;;;;;;;5033222;28;20018;-66
2021/12/30 04:19:04;;;;;;;41.17;13.68;;;;;;;;;;5033323;28;20045;-65
2021/12/30 04:21:30;;;;;;;54.85;12.40;;;;;;;;;;5033164;28;20396;-66
2021/12/30 04:23:56;;;;;;;62.80;13.00;;;;;;;;;;5033428;28;20036;-65
2021/12/30 04:26:22;;;;;;;101.32;14.65;;;;;;;;;;5032917;28;20029;-66
2021/12/30 04:28:48;;;;;;;63.80;13.38;;;;;;;;;;5033120;28;20367;-63
2021/12/30 04:31:14;;;;;;;57.10;12.23;;;;;;;;;;5032756;28;20041;-64
2021/12/30 04:33:40;;;;;;;80.38;14.20;;;;;;;;;;5033101;28;20037;-66
2021/12/30 04:36:06;;;;;;;63.80;12.57;;;;;;;;;;5032854;28;20107;-63
2021/12/30 04:38:32;;;;;;;97.15;13.02;;;;;;;;;;5033068;28;20033;-63
2021/12/30 04:40:59;;;;;;;71.72;13.50;;;;;;;;;;5032748;28;20033;-57
2021/12/30 04:43:24;;;;;;;80.97;13.30;;;;;;;;;;5032755;28;20021;-60
2021/12/30 04:45:50;;;;;;;100.32;13.35;;;;;;;;;;5032698;28;20483;-66
2021/12/30 04:48:17;;;;;;;74.45;12.57;;;;;;;;;;5032960;28;20025;-60
2021/12/30 04:50:45;;;;;;;83.03;12.32;;;;;;;;;;5032876;28;20018;-60
2021/12/30 04:53:11;;;;;;;59.55;12.52;;;;;;;;;;5032829;28;20495;-58
2021/12/30 04:55:37;;;;;;;57.88;12.18;;;;;;;;;;5032710;28;20487;-56
2021/12/30 04:58:03;;;;;;;77.05;12.30;;;;;;;;;;5032601;28;20025;-64
2021/12/30 05:00:28;;;;;;;58.40;12.55;;;;;;;;;;5032405;28;20037;-63
2021/12/30 05:05:45;;;;;;;62.92;11.65;;;;;;;;;;5033053;28;20022;-57
2021/12/30 05:08:11;;;;;;;31.30;9.88;;;;;;;;;;5032931;28;20021;-65
2021/12/30 05:10:38;;;;;;;42.15;11.02;;;;;;;;;;5032728;28;20353;-62
2021/12/30 05:13:05;;;;;;;55.83;10.88;;;;;;;;;;5032456;28;20059;-62
2021/12/30 05:15:30;;;;;;;34.65;9.35;;;;;;;;;;5032072;28;20052;-57
2021/12/30 05:17:56;;;;;;;44.05;10.38;;;;;;;;;;5032553;28;20468;-56
2021/12/30 05:20:22;;;;;;;33.97;9.52;;;;;;;;;;5032418;28;20384;-58
2021/12/30 05:22:48;;;;;;;43.67;9.77;;;;;;;;;;5032451;28;20127;-56
2021/12/30 05:25:15;;;;;;;40.53;8.95;;;;;;;;;;5032353;28;20033;-64
2021/12/30 05:27:41;;;;;;;39.08;9.85;;;;;;;;;;5032192;28;20021;-55
2021/12/30 05:30:09;;;;;;;34.08;9.77;;;;;;;;;;5032177;28;20049;-55
2021/12/30 05:32:34;;;;;;;39.58;9.65;;;;;;;;;;5032335;28;20037;-55
2021/12/30 05:35:00;;;;;;;27.27;10.05;;;;;;;;;;5032440;28;20022;-57
2021/12/30 05:37:26;;;;;;;26.23;9.52;;;;;;;;;;5032730;28;20033;-55
2021/12/30 05:39:51;;;;;;;32.63;9.82;;;;;;;;;;5032225;28;20021;-54
2021/12/30 05:42:17;;;;;;;27.95;10.38;;;;;;;;;;5032153;28;20029;-65
2021/12/30 05:44:42;;;;;;;33.30;9.93;;;;;;;;;;5014523;28;20018;-65
2021/12/30 05:47:08;;;;;;;26.85;10.25;;;;;;;;;;5032393;28;20595;-66
2021/12/30 05:49:33;;;;;;;23.55;10.20;;;;;;;;;;5032250;28;20025;-66
2021/12/30 05:51:59;;;;;;;23.83;9.77;;;;;;;;;;5032126;28;20068;-64
2021/12/30 05:54:24;;;;;;;27.98;10.13;;;;;;;;;;5032113;28;20021;-66
2021/12/30 05:56:50;;;;;;;30.35;9.95;;;;;;;;;;5032096;28;20018;-59
2021/12/30 05:59:16;;;;;;;41.47;10.90;;;;;;;;;;5014093;28;20601;-65
2021/12/30 06:01:41;;;;;;;25.90;10.55;;;;;;;;;;5032143;28;20022;-64
2021/12/30 06:04:06;;;;;;;24.88;10.30;;;;;;;;;;5031752;28;20061;-64
2021/12/30 06:06:32;;;;;;;37.63;10.23;;;;;;;;;;5032151;28;20416;-64
2021/12/30 06:08:57;;;;;;;20.88;9.10;;;;;;;;;;5032099;28;20033;-64
2021/12/30 06:11:23;;;;;;;29.02;10.10;;;;;;;;;;5031752;28;20092;-64
2021/12/30 06:13:48;;;;;;;23.98;9.82;;;;;;;;;;5031914;28;20025;-62
2021/12/30 06:16:14;;;;;;;27.48;10.02;;;;;;;;;;5031896;28;20076;-65
2021/12/30 06:18:39;;;;;;;25.98;10.00;;;;;;;;;;5031695;28;20029;-66
2021/12/30 06:21:05;;;;;;;25.48;9.68;;;;;;;;;;5031953;28;20052;-66
2021/12/30 06:23:30;;;;;;;32.15;9.43;;;;;;;;;;5031845;28;20049;-62
2021/12/30 06:25:55;;;;;;;26.48;9.32;;;;;;;;;;5032047;28;20026;-57
2021/12/30 06:28:21;;;;;;;27.45;9.23;;;;;;;;;;5035566;28;20048;-61
2021/12/30 06:30:46;;;;;;;29.90;9.20;;;;;;;;;;5035268;28;20133;-62
2021/12/30 06:33:12;;;;;;;21.38;8.30;;;;;;;;;;5017387;28;20124;-63
2021/12/30 06:35:37;;;;;;;25.17;8.98;;;;;;;;;;5035477;28;20041;-62
2021/12/30 06:38:03;;;;;;;20.52;8.23;;;;;;;;;;5035312;28;20022;-60
2021/12/30 06:40:29;;;;;;;21.05;7.20;;;;;;;;;;5034829;28;20083;-65
2021/12/30 06:42:55;;;;;;;22.42;7.45;;;;;;;;;;5035201;28;20137;-65
2021/12/30 06:45:20;;;;;;;22.50;7.35;;;;;;;;;;5035237;28;20108;-65
2021/12/30 06:47:46;;;;;;;26.63;8.27;;;;;;;;;;5035261;28;20168;-66
2021/12/30 06:50:14;;;;;;;21.17;7.53;;;;;;;;;;5035079;28;20197;-58
2021/12/30 06:52:40;;;;;;;31.60;8.32;;;;;;;;;;5034945;28;20376;-62
2021/12/30 06:55:08;;;;;;;29.00;7.82;;;;;;;;;;5034983;28;20029;-62
2021/12/30 06:57:34;;;;;;;27.20;8.23;;;;;;;;;;5035010;28;20431;-63
2021/12/30 06:59:59;;;;;;;39.03;8.32;;;;;;;;;;5034705;28;20048;-61
2021/12/30 07:02:25;;;;;;;31.15;7.80;;;;;;;;;;5034874;28;20461;-61
2021/12/30 07:04:50;;;;;;;26.10;7.97;;;;;;;;;;5034839;28;20121;-61
2021/12/30 07:07:16;;;;;;;39.88;8.40;;;;;;;;;;5034741;28;20417;-59
2021/12/30 07:09:41;;;;;;;30.38;7.90;;;;;;;;;;5034656;28;20464;-65
2021/12/30 07:12:07;;;;;;;26.40;7.60;;;;;;;;;;5034887;28;20429;-66
2021/12/30 07:14:32;;;;;;;44.58;8.25;;;;;;;;;;5016740;28;20037;-61
2021/12/30 07:16:58;;;;;;;36.13;9.02;;;;;;;;;;5034787;28;20057;-62
2021/12/30 07:19:24;;;;;;;30.08;10.00;;;;;;;;;;5034442;28;20074;-65
2021/12/30 07:21:52;;;;;;;36.15;10.07;;;;;;;;;;5034661;28;20030;-66
2021/12/30 07:24:22;;;;;;;31.95;8.23;;;;;;;;;;5034123;28;20017;-65
2021/12/30 07:26:51;;;;;;;30.33;9.35;;;;;;;;;;5034314;28;20051;-66
2021/12/30 07:29:17;;;;;;;34.13;9.75;;;;;;;;;;5034336;28;20060;-66
2021/12/30 07:31:43;;;;;;;31.92;7.57;;;;;;;;;;5034153;28;20072;-66
2021/12/30 07:34:08;;;;;;;35.75;7.82;;;;;;;;;;5034280;28;20108;-65
2021/12/30 07:36:34;;;;;;;32.15;8.52;;;;;;;;;;5034366;28;20428;-65
2021/12/30 07:38:59;;;;;;;26.77;8.15;;;;;;;;;;5032811;28;20028;-65
2021/12/30 07:41:25;;;;;;;24.80;7.45;;;;;;;;;;5034081;28;20040;-66
2021/12/30 07:43:50;;;;;;;23.02;7.45;;;;;;;;;;5033830;28;20026;-63
2021/12/30 07:46:16;;;;;;;35.80;7.97;;;;;;;;;;5034105;28;20030;-64
2021/12/30 07:48:42;;;;;;;33.10;8.00;;;;;;;;;;5033744;28;20021;-66
2021/12/30 07:51:07;;;;;;;25.98;7.53;;;;;;;;;;5034125;28;20033;-66
2021/12/30 07:53:33;;;;;;;31.73;9.18;;;;;;;;;;5033459;28;20032;-66
2021/12/30 07:56:01;;;;;;;40.95;8.02;;;;;;;;;;5033817;28;20033;-66
2021/12/30 07:58:27;;;;;;;32.65;9.23;;;;;;;;;;5034025;28;20032;-66
2021/12/30 08:00:52;;;;;;;29.38;8.10;;;;;;;;;;5033722;28;20476;-65
2021/12/30 08:03:18;;;;;;;26.40;8.43;;;;;;;;;;5033656;28;20049;-66
2021/12/30 08:05:45;;;;;;;27.88;8.00;;;;;;;;;;5033791;28;20187;-66
2021/12/30 08:08:11;;;;;;;18.92;7.15;;;;;;;;;;5033182;28;20020;-59
2021/12/30 08:10:36;;;;;;;22.75;8.80;;;;;;;;;;5033526;28;20056;-59
2021/12/30 08:13:02;;;;;;;25.98;8.38;;;;;;;;;;5033719;28;20469;-56
2021/12/30 08:15:28;;;;;;;27.73;9.02;;;;;;;;;;5033278;28;20495;-53
2021/12/30 08:17:54;;;;;;;23.95;8.32;;;;;;;;;;5033406;28;20435;-56
2021/12/30 08:20:22;;;;;;;20.10;8.75;;;;;;;;;;5033403;28;20029;-58
2021/12/30 08:22:48;;;;;;;20.10;8.77;;;;;;;;;;5032753;28;20116;-60
2021/12/30 08:25:14;;;;;;;18.50;8.20;;;;;;;;;;5033493;28;20026;-58
2021/12/30 08:27:41;;;;;;;19.75;7.82;;;;;;;;;;5033063;28;20043;-56
2021/12/30 08:30:10;;;;;;;22.65;8.30;;;;;;;;;;5032877;28;20042;-61
2021/12/30 08:32:35;;;;;;;18.42;8.43;;;;;;;;;;5033025;28;20354;-58
2021/12/30 08:35:01;;;;;;;15.93;7.00;;;;;;;;;;5032971;28;20033;-59
2021/12/30 08:37:26;;;;;;;16.80;7.75;;;;;;;;;;5032536;28;20443;-56
2021/12/30 08:39:52;;;;;;;21.85;8.05;;;;;;;;;;5033208;28;20021;-61
2021/12/30 08:42:21;;;;;;;22.10;7.88;;;;;;;;;;5033070;28;20025;-66
2021/12/30 08:44:48;;;;;;;25.10;8.17;;;;;;;;;;5032755;28;20075;-66
2021/12/30 08:47:14;;;;;;;23.45;8.52;;;;;;;;;;5032924;28;20031;-64
2021/12/30 08:49:41;;;;;;;22.02;8.27;;;;;;;;;;5032270;28;20029;-66
2021/12/30 08:52:09;;;;;;;22.13;9.20;;;;;;;;;;5032283;28;20021;-62
2021/12/30 08:54:35;;;;;;;25.00;8.15;;;;;;;;;;5032889;28;20022;-66
2021/12/30 08:57:01;;;;;;;21.75;9.45;;;;;;;;;;5032691;28;20028;-66
2021/12/30 08:59:26;;;;;;;33.63;8.75;;;;;;;;;;5032642;28;20103;-65
2021/12/30 09:01:52;;;;;;;27.45;10.00;;;;;;;;;;5032533;28;20141;-66
2021/12/30 09:04:17;;;;;;;38.92;11.77;;;;;;;;;;5032603;28;20079;-66
2021/12/30 09:06:43;;;;;;;23.70;9.75;;;;;;;;;;5032361;28;20487;-65
2021/12/30 09:09:08;;;;;;;37.78;11.30;;;;;;;;;;5032687;28;20038;-66
2021/12/30 09:11:34;;;;;;;26.55;9.75;;;;;;;;;;5032597;28;20022;-67
2021/12/30 09:13:59;;;;;;;16.10;7.25;;;;;;;;;;5032708;28;20072;-66
2021/12/30 09:16:24;;;;;;;23.88;8.90;;;;;;;;;;5032577;28;20105;-62
2021/12/30 09:18:50;;;;;;;24.83;9.43;;;;;;;;;;5032623;28;20105;-66
2021/12/30 09:21:15;;;;;;;18.85;9.07;;;;;;;;;;5032122;28;20116;-63
2021/12/30 09:23:41;;;;;;;20.98;8.70;;;;;;;;;;5032351;28;20051;-61
2021/12/30 09:26:06;;;;;;;21.27;9.13;;;;;;;;;;5032419;28;20075;-66
2021/12/30 09:28:33;;;;;;;26.20;9.05;;;;;;;;;;5032404;28;20487;-65
2021/12/30 09:30:58;;;;;;;23.90;8.23;;;;;;;;;;5032030;28;20046;-63
2021/12/30 09:33:24;;;;;;;28.38;11.27;;;;;;;;;;5032324;28;20055;-65
2021/12/30 09:35:49;;;;;;;25.48;10.10;;;;;;;;;;5032162;28;20029;-61
2021/12/30 09:38:15;;;;;;;24.02;10.20;;;;;;;;;;5032250;28;20030;-65
2021/12/30 09:40:40;;;;;;;27.33;10.80;;;;;;;;;;5032069;28;20376;-64
2021/12/30 09:43:09;;;;;;;31.63;14.00;;;;;;;;;;5032305;28;20029;-61
2021/12/30 09:45:38;;;;;;;32.78;15.80;;;;;;;;;;5031648;28;20472;-63
2021/12/30 09:48:07;;;;;;;31.67;15.25;;;;;;;;;;5031926;28;20037;-65
2021/12/30 09:50:37;;;;;;;25.60;9.75;;;;;;;;;;5032160;28;20412;-66
2021/12/30 09:53:04;;;;;;;;;;;;;;;;;;5032530;28;20021;-61
2021/12/30 09:55:30;;;;;;;27.77;11.98;;;;;;;;;;5014305;28;19964;-63
2021/12/30 09:57:56;;;;;;;24.45;10.60;;;;;;;;;;5032224;28;20029;-63
2021/12/30 10:00:22;;;;;;;26.65;9.73;;;;;;;;;;5031922;28;20443;-64
2021/12/30 10:02:50;;;;;;;24.23;10.13;;;;;;;;;;5035580;28;20030;-61
2021/12/30 10:05:23;;;;;;;25.63;9.70;;;;;;;;;;5035859;28;20523;-65
2021/12/30 10:07:48;;;;;;;21.50;9.20;;;;;;;;;;5036027;28;20025;-61
2021/12/30 10:10:38;;;;;;;21.70;10.73;;;;;;;;;;5035850;28;20388;-57
2021/12/30 10:13:16;;;;;;;24.67;9.97;;;;;;;;;;5036133;28;20025;-62
2021/12/30 10:15:43;;;;;;;26.92;12.55;;;;;;;;;;5035903;28;20275;-59
2021/12/30 10:18:09;;;;;;;22.10;10.32;;;;;;;;;;5035274;28;20026;-59
2021/12/30 10:20:37;;;;;;;29.73;11.90;;;;;;;;;;5035611;28;20036;-60
2021/12/30 10:23:14;;;;;;;26.52;9.93;;;;;;;;;;5035580;28;20025;-58
2021/12/30 10:25:42;;;;;;;27.23;9.10;;;;;;;;;;5035562;28;20065;-57
2021/12/30 10:28:36;;;;;;;31.45;8.70;;;;;;;;;;5035388;28;20435;-60
2021/12/30 10:31:25;;;;;;;28.85;8.27;;;;;;;;;;5035343;28;20037;-60
2021/12/30 10:33:56;;;;;;;38.17;8.83;;;;;;;;;;5023405;28;20489;-57
2021/12/30 10:36:29;;;;;;;44.75;10.32;;;;;;;;;;5035403;28;20324;-58
2021/12/30 10:39:14;;;;;;;46.22;10.23;;;;;;;;;;5035456;28;20029;-65
2021/12/30 10:41:39;;;;;;;39.40;9.52;;;;;;;;;;5035132;28;20025;-64
2021/12/30 10:44:05;;;;;;;31.45;9.48;;;;;;;;;;5035127;28;20024;-57
2021/12/30 10:46:31;;;;;;;28.35;9.50;;;;;;;;;;5035157;28;20032;-56
2021/12/30 10:48:59;;;;;;;20.83;8.32;;;;;;;;;;5034990;28;20052;-57
2021/12/30 10:51:28;;;;;;;28.30;8.60;;;;;;;;;;5017437;28;20476;-58
2021/12/30 10:53:56;;;;;;;21.95;8.05;;;;;;;;;;5017075;28;20025;-58
2021/12/30 10:56:29;;;;;;;17.48;8.15;;;;;;;;;;5035117;28;20029;-57
2021/12/30 10:59:15;;;;;;;19.95;9.52;;;;;;;;;;5035104;28;20030;-57
2021/12/30 11:01:52;;;;;;;14.98;7.72;;;;;;;;;;5034708;28;20044;-59
2021/12/30 11:04:19;;;;;;;19.35;8.55;;;;;;;;;;5034633;28;20097;-58
2021/12/30 11:06:46;;;;;;;16.63;9.15;;;;;;;;;;5034749;28;20128;-58
2021/12/30 11:09:20;;;;;;;19.38;9.32;;;;;;;;;;5034618;28;20038;-63
2021/12/30 11:11:54;;;;;;;24.30;10.70;;;;;;;;;;5034449;28;20037;-56
2021/12/30 11:14:26;;;;;;;26.90;12.25;;;;;;;;;;5034750;28;20368;-55
2021/12/30 11:17:02;;;;;;;25.45;10.70;;;;;;;;;;5034321;28;20021;-58
2021/12/30 11:19:30;;;;;;;22.25;10.25;;;;;;;;;;5034726;28;20025;-65
2021/12/30 11:22:00;;;;;;;24.05;9.48;;;;;;;;;;5034472;28;20029;-55
2021/12/30 11:24:28;;;;;;;23.95;10.93;;;;;;;;;;5034342;28;20499;-66
2021/12/30 11:26:55;;;;;;;27.63;10.52;;;;;;;;;;5034612;28;20404;-66
2021/12/30 11:29:22;;;;;;;25.40;10.27;;;;;;;;;;5034664;28;20032;-63
2021/12/30 11:31:47;;;;;;;25.15;10.35;;;;;;;;;;5034041;28;20124;-66
2021/12/30 11:34:13;;;;;;;29.25;10.93;;;;;;;;;;5034261;28;20117;-68
2021/12/30 11:36:38;;;;;;;21.70;8.88;;;;;;;;;;5034294;28;20022;-57
2021/12/30 11:39:15;;;;;;;32.17;10.43;;;;;;;;;;5034321;28;20033;-58
2021/12/30 11:41:43;;;;;;;28.73;11.77;;;;;;;;;;5034170;28;20034;-59
2021/12/30 11:44:09;;;;;;;36.95;12.52;;;;;;;;;;5033977;28;20097;-66
2021/12/30 11:46:46;;;;;;;35.05;12.35;;;;;;;;;;5034168;28;20101;-66
2021/12/30 11:49:13;;;;;;;35.03;11.48;;;;;;;;;;5033876;28;20052;-67
2021/12/30 11:51:48;;;;;;;35.35;11.65;;;;;;;;;;5033940;28;20032;-65
2021/12/30 11:54:32;;;;;;;33.42;12.95;;;;;;;;;;5033973;28;20044;-66
2021/12/30 11:57:25;;;;;;;37.33;13.27;;;;;;;;;;5034042;28;20021;-66
2021/12/30 11:59:51;;;;;;;34.97;14.15;;;;;;;;;;5033579;28;20026;-65
2021/12/30 12:02:35;;;;;;;37.70;14.40;;;;;;;;;;5033658;28;20029;-66
2021/12/30 12:05:40;;;;;;;35.83;12.95;;;;;;;;;;5033686;28;20029;-63
2021/12/30 12:08:07;;;;;;;29.25;12.57;;;;;;;;;;5033510;28;20053;-66
2021/12/30 12:10:33;;;;;;;28.85;11.85;;;;;;;;;;5033269;28;20029;-66
2021/12/30 12:13:30;;;;;;;31.95;11.80;;;;;;;;;;5033214;28;20080;-67
2021/12/30 12:15:56;;;;;;;27.10;10.98;;;;;;;;;;5033413;28;20033;-67
2021/12/30 12:18:23;;;;;;;24.20;11.60;;;;;;;;;;5033460;28;20092;-67
2021/12/30 12:20:57;;;;;;;31.38;11.38;;;;;;;;;;5033097;28;20065;-66
2021/12/30 12:23:35;;;;;;;29.85;10.82;;;;;;;;;;5032925;28;20029;-67
2021/12/30 12:26:38;;;;;;;28.70;10.50;;;;;;;;;;5033330;28;20365;-65
2021/12/30 12:29:33;;;;;;;27.05;11.23;;;;;;;;;;5033070;28;20025;-66
2021/12/30 12:32:10;;;;;;;34.22;11.52;;;;;;;;;;5033081;28;20444;-66
2021/12/30 12:34:40;;;;;;;25.55;11.30;;;;;;;;;;5033138;28;20025;-64
2021/12/30 12:37:40;;;;;;;27.17;11.68;;;;;;;;;;5032832;28;20022;-67
2021/12/30 12:40:05;;;;;;;27.92;10.02;;;;;;;;;;5032847;28;20488;-65
2021/12/30 12:42:55;;;;;;;26.08;9.95;;;;;;;;;;5032826;28;20114;-65
2021/12/30 12:45:25;;;;;;;24.97;10.40;;;;;;;;;;5033273;28;20103;-67
2021/12/30 12:48:17;;;;;;;32.28;10.73;;;;;;;;;;5033224;28;20591;-67
2021/12/30 12:50:57;;;;;;;28.70;10.43;;;;;;;;;;5022381;28;20025;-67
2021/12/30 12:53:38;;;;;;;29.67;9.83;;;;;;;;;;5032950;28;20380;-66
2021/12/30 12:56:09;;;;;;;29.98;10.73;;;;;;;;;;5032946;28;20060;-67
2021/12/30 12:58:41;;;;;;;30.30;9.82;;;;;;;;;;5032737;28;20021;-66
2021/12/30 13:01:09;;;;;;;32.30;10.25;;;;;;;;;;5032562;28;20083;-63
2021/12/30 13:03:35;;;;;;;25.10;9.20;;;;;;;;;;5019676;28;20377;-67
2021/12/30 13:06:53;;;;;;;31.13;9.52;;;;;;;;;;5032837;28;20017;-66
2021/12/30 13:09:22;;;;;;;29.90;8.20;;;;;;;;;;4966147;28;20031;-66
2021/12/30 13:11:50;;;;;;;24.08;9.05;;;;;;;;;;4971692;28;20178;-64
2021/12/30 13:14:27;;;;;;;30.70;9.52;;;;;;;;;;4971699;28;20045;-65
2021/12/30 13:17:05;;;;;;;32.42;11.38;;;;;;;;;;4971764;28;20399;-65
2021/12/30 13:19:33;;;;;;;24.73;9.85;;;;;;;;;;4971553;28;20034;-67
2021/12/30 13:22:06;;;;;;;24.52;8.93;;;;;;;;;;4971670;28;20035;-58
2021/12/30 13:24:39;;;;;;;25.88;8.93;;;;;;;;;;4971496;28;20130;-61
2021/12/30 13:27:07;;;;;;;25.27;8.35;;;;;;;;;;4971477;28;20038;-60
2021/12/30 13:29:38;;;;;;;25.58;9.23;;;;;;;;;;4971292;28;20050;-64
2021/12/30 13:32:20;;;;;;;24.20;8.38;;;;;;;;;;4971241;28;20050;-55
2021/12/30 13:35:24;;;;;;;23.15;9.02;;;;;;;;;;4971957;28;20031;-59
2021/12/30 13:37:51;;;;;;;25.33;8.80;;;;;;;;;;4975653;28;20470;-62
2021/12/30 13:40:27;;;;;;;21.77;9.52;;;;;;;;;;4975226;28;20042;-63
2021/12/30 13:43:02;;;;;;;26.27;10.30;;;;;;;;;;4975557;28;20033;-58
2021/12/30 13:45:35;;;;;;;25.27;8.70;;;;;;;;;;5020286;28;20033;-57
2021/12/30 13:48:08;;;;;;;26.65;9.50;;;;;;;;;;5036286;28;20531;-59
2021/12/30 13:50:35;;;;;;;29.27;10.18;;;;;;;;;;5036034;28;20024;-59
2021/12/30 13:53:03;;;;;;;27.17;9.82;;;;;;;;;;5036016;28;20025;-58
2021/12/30 13:55:36;;;;;;;21.35;9.65;;;;;;;;;;5035337;28;20036;-59
2021/12/30 13:58:16;;;;;;;22.65;10.45;;;;;;;;;;5036161;28;20037;-57
2021/12/30 14:01:16;;;;;;;24.80;9.98;;;;;;;;;;5036068;28;20075;-58
2021/12/30 14:03:44;;;;;;;23.27;10.07;;;;;;;;;;4955489;29;20035;-60
2021/12/30 14:06:13;;;;;;;26.90;10.02;;;;;;;;;;4955649;29;20027;-59
2021/12/30 14:08:57;;;;;;;32.83;9.90;;;;;;;;;;4955546;29;20042;-59
2021/12/30 14:11:36;;;;;;;33.97;8.98;;;;;;;;;;4953323;29;20066;-62
2021/12/30 14:14:04;;;;;;;27.20;9.57;;;;;;;;;;4946844;29;20446;-62
2021/12/30 14:17:02;;;;;;;24.00;9.10;;;;;;;;;;4955440;29;20051;-61
2021/12/30 14:19:37;;;;;;;25.45;9.40;;;;;;;;;;4943279;29;20135;-63
2021/12/30 14:22:05;;;;;;;36.20;9.25;;;;;;;;;;4955550;29;20039;-60
2021/12/30 14:24:32;;;;;;;26.42;8.73;;;;;;;;;;4955101;29;20610;-59
2021/12/30 14:27:12;;;;;;;26.17;9.10;;;;;;;;;;4955355;29;20098;-58
2021/12/30 14:29:37;;;;;;;24.60;10.57;;;;;;;;;;4955193;29;20035;-56
2021/12/30 14:32:06;;;;;;;26.77;10.60;;;;;;;;;;4955058;29;20110;-59
2021/12/30 14:34:39;;;;;;;34.55;10.07;;;;;;;;;;4955111;29;20090;-57
2021/12/30 14:37:11;;;;;;;27.88;10.88;;;;;;;;;;4954953;29;20031;-58
2021/12/30 14:39:45;;;;;;;28.45;10.27;;;;;;;;;;4975324;28;20037;-61